Time;durP1;ratioP1;P1;durP2;ratioP2;P2;SDS_P1;SDS_P2;PMS_P1;PMS_P2;Temp;Humidity;BMP_temperature;BMP_pressure;BME280_temperature;BME280_humidity;BME280_pressure;Samples;Min_cycle;Max_cycle;Signal;HPM_P1;HPM_P2
2021/05/19 00:01:44;;;;;;;;;3.00;3.00;;;;;19.53;38.12;99047.16;5000519;28;8911;-43
2021/05/19 00:04:10;;;;;;;;;3.00;3.00;;;;;19.50;38.22;99053.31;5006272;28;9358;-43
2021/05/19 00:06:36;;;;;;;;;3.00;3.00;;;;;19.48;38.19;99052.84;5002829;28;8806;-43
2021/05/19 00:09:07;;;;;;;;;2.60;2.20;;;;;19.52;38.24;99056.50;5001957;28;8826;-43
2021/05/19 00:11:34;;;;;;;;;3.00;3.00;;;;;19.48;38.21;99050.13;4998930;28;8807;-42
2021/05/19 00:14:00;;;;;;;;;3.00;3.00;;;;;19.48;38.25;99050.13;4994568;28;8790;-43
2021/05/19 00:16:27;;;;;;;;;2.00;2.00;;;;;19.50;38.32;99047.84;5003330;28;8885;-42
2021/05/19 00:18:52;;;;;;;;;4.00;4.00;;;;;19.75;38.11;99039.66;5007466;28;9630;-43
2021/05/19 00:21:19;;;;;;;;;4.00;4.00;;;;;19.68;37.97;99048.38;5002341;28;8812;-42
2021/05/19 00:23:44;;;;;;;;;3.60;3.60;;;;;19.55;37.98;99050.34;5003993;28;8949;-43
2021/05/19 00:26:09;;;;;;;;;3.00;3.00;;;;;19.47;38.28;99048.50;4999580;28;8906;-43
2021/05/19 00:28:35;;;;;;;;;3.00;3.00;;;;;19.48;38.22;99050.13;4997039;28;8969;-43
2021/05/19 00:31:03;;;;;;;;;3.25;3.25;;;;;19.44;38.36;99047.28;5006678;28;8852;-43
2021/05/19 00:33:29;;;;;;;;;3.40;3.40;;;;;19.50;37.99;99053.31;5005160;28;8812;-43
2021/05/19 00:35:54;;;;;;;;;4.00;4.00;;;;;19.56;37.95;99051.13;4998445;28;9575;-43
2021/05/19 00:38:20;;;;;;;;;3.50;3.50;;;;;19.59;37.82;99048.50;4996709;28;8854;-43
2021/05/19 00:40:46;;;;;;;;;3.00;3.00;;;;;19.60;37.90;99050.13;4999119;28;8793;-43
2021/05/19 00:43:11;;;;;;;;;3.00;3.00;;;;;19.18;37.80;98983.94;5001417;28;8803;-43
2021/05/19 00:45:37;;;;;;;;;3.00;3.00;;;;;19.67;37.63;99050.34;5007313;28;8804;-43
2021/05/19 00:48:03;;;;;;;;;3.00;3.00;;;;;19.53;37.81;99024.50;5001895;28;8792;-43
2021/05/19 00:50:31;;;;;;;;;2.00;2.00;;;;;19.83;37.72;99049.69;5003987;28;8875;-43
2021/05/19 00:52:56;;;;;;;;;3.60;3.60;;;;;19.86;37.60;99038.84;5002434;28;8811;-43
2021/05/19 00:55:22;;;;;;;;;3.00;3.00;;;;;19.78;37.65;99044.44;4997968;28;8776;-43
2021/05/19 00:57:52;;;;;;;;;3.40;3.40;;;;;19.79;37.51;99051.50;4997919;28;8789;-41
2021/05/19 01:00:20;;;;;;;;;3.80;3.80;;;;;19.70;37.56;99048.06;5004354;28;8780;-43
2021/05/19 01:02:46;;;;;;;;;3.60;3.60;;;;;19.69;37.58;99044.53;4997712;28;8823;-43
2021/05/19 01:05:28;;;;;;;;;4.50;4.00;;;;;19.67;37.75;99055.03;4999629;28;8809;-43
2021/05/19 01:10:38;;;;;;;;;3.00;3.00;;;;;19.46;37.94;99047.72;4997172;28;8902;-43
2021/05/19 01:13:05;;;;;;;;;2.50;2.50;;;;;19.41;38.07;99049.91;4997471;28;8951;-43
2021/05/19 01:15:31;;;;;;;;;3.00;3.00;;;;;19.41;38.08;99055.38;5007287;28;8804;-43
2021/05/19 01:17:57;;;;;;;;;3.00;3.00;;;;;19.40;38.22;99056.50;5002755;28;9473;-43
2021/05/19 01:20:22;;;;;;;;;3.00;3.00;;;;;19.40;38.03;99060.03;5004361;28;8789;-42
2021/05/19 01:22:48;;;;;;;;;3.75;3.50;;;;;19.49;38.42;99049.00;5005089;28;8827;-43
2021/05/19 01:25:13;;;;;;;;;2.25;2.25;;;;;19.67;37.92;99055.03;5002131;28;8854;-43
2021/05/19 01:27:39;;;;;;;;;4.25;4.25;;;;;19.56;37.92;99062.06;4976287;28;9496;-43
2021/05/19 01:30:08;;;;;;;;;3.00;3.00;;;;;19.46;38.07;99049.66;5002264;28;8901;-43
2021/05/19 01:32:34;;;;;;;;;2.80;2.80;;;;;19.39;38.11;99047.50;4988769;28;9786;-43
2021/05/19 01:34:59;;;;;;;;;3.25;3.25;;;;;19.35;38.33;99051.25;4973621;28;8799;-42
2021/05/19 01:37:25;;;;;;;;;4.00;3.75;;;;;19.41;38.22;99050.69;4988601;28;11698;-42
2021/05/19 01:39:51;;;;;;;;;3.00;3.00;;;;;19.22;38.15;99032.09;4999760;28;8941;-42
2021/05/19 01:42:17;;;;;;;;;3.80;3.80;;;;;19.36;38.29;99050.13;4991043;28;8950;-43
2021/05/19 01:44:43;;;;;;;;;4.00;4.00;;;;;19.33;38.17;99056.25;5002533;28;8796;-43
2021/05/19 01:47:09;;;;;;;;;4.00;4.00;;;;;19.33;38.37;99048.88;5002861;28;8862;-43
2021/05/19 01:49:43;;;;;;;;;3.60;3.60;;;;;19.33;38.20;99048.88;5003780;28;11453;-43
2021/05/19 01:52:11;;;;;;;;;4.00;4.00;;;;;19.29;38.38;99048.75;5002537;28;8828;-44
2021/05/19 01:54:38;;;;;;;;;4.20;4.20;;;;;19.28;38.30;99047.16;5004165;28;8816;-43
2021/05/19 01:57:06;;;;;;;;;3.20;3.20;;;;;19.49;38.21;99047.03;4994812;28;8784;-43
2021/05/19 01:59:32;;;;;;;;;3.00;3.00;;;;;19.47;38.31;99048.50;5003822;28;8824;-43
2021/05/19 02:01:57;;;;;;;;;4.00;4.00;;;;;19.37;38.26;99054.47;5002278;28;9526;-43
2021/05/19 02:04:23;;;;;;;;;3.00;3.00;;;;;19.21;38.36;99036.00;5003825;28;8752;-43
2021/05/19 02:06:54;;;;;;;;;2.25;2.25;;;;;19.28;38.45;99052.63;5003993;28;8796;-43
2021/05/19 02:09:19;;;;;;;;;2.60;2.60;;;;;19.32;38.24;99051.94;5001474;28;11161;-43
2021/05/19 02:11:45;;;;;;;;;3.50;3.00;;;;;19.29;38.22;99054.22;4993321;28;8815;-43
2021/05/19 02:14:11;;;;;;;;;4.60;4.60;;;;;19.31;38.27;99048.41;4988728;28;9019;-43
2021/05/19 02:16:37;;;;;;;;;3.00;3.00;;;;;19.04;38.38;99015.13;4989401;28;8947;-43
2021/05/19 02:19:03;;;;;;;;;3.50;3.50;;;;;19.26;38.29;99052.16;5003461;28;9037;-43
2021/05/19 02:21:29;;;;;;;;;3.60;3.60;;;;;19.24;38.38;99040.78;4995413;28;8808;-43
2021/05/19 02:23:54;;;;;;;;;3.00;3.00;;;;;19.24;38.33;99050.91;5001650;28;8959;-43
2021/05/19 02:26:20;;;;;;;;;3.00;3.00;;;;;19.25;38.25;99045.09;4983264;28;8801;-43
2021/05/19 02:28:46;;;;;;;;;2.40;2.40;;;;;18.85;38.48;98979.34;4981486;28;8806;-43
2021/05/19 02:31:12;;;;;;;;;4.00;4.00;;;;;19.51;38.24;99049.44;4991033;28;8839;-43
2021/05/19 02:33:37;;;;;;;;;3.20;3.20;;;;;19.35;38.08;99029.38;5005936;28;11444;-43
2021/05/19 02:36:03;;;;;;;;;3.00;3.00;;;;;19.35;38.20;99041.13;5002304;28;8815;-43
2021/05/19 02:38:28;;;;;;;;;3.50;3.50;;;;;19.32;38.40;99049.22;5004285;28;8799;-43
2021/05/19 02:40:55;;;;;;;;;3.25;3.25;;;;;19.26;38.31;99052.16;4994125;28;10776;-42
2021/05/19 02:43:22;;;;;;;;;4.00;4.00;;;;;19.34;38.37;99049.66;4998946;28;8831;-43
2021/05/19 02:45:48;;;;;;;;;5.00;5.00;;;;;19.37;38.36;99043.53;5005741;28;8776;-43
2021/05/19 02:48:13;;;;;;;;;4.00;4.00;;;;;19.39;38.05;99052.19;5000676;28;9002;-43
2021/05/19 02:50:39;;;;;;;;;3.75;3.75;;;;;19.35;38.03;99045.78;4999776;28;9624;-43
2021/05/19 02:53:04;;;;;;;;;4.25;4.25;;;;;19.38;38.15;99045.88;4997373;28;12791;-43
2021/05/19 02:55:31;;;;;;;;;4.50;4.00;;;;;19.38;37.99;99053.31;4999132;28;8927;-43
2021/05/19 02:57:56;;;;;;;;;4.00;4.00;;;;;19.32;38.06;99049.22;4994631;28;8815;-43
2021/05/19 03:00:22;;;;;;;;;3.75;3.75;;;;;19.25;38.29;99047.03;5005756;28;8808;-43
2021/05/19 03:02:47;;;;;;;;;4.00;4.00;;;;;19.48;38.29;99047.38;5003845;28;9226;-43
2021/05/19 03:05:12;;;;;;;;;4.00;4.00;;;;;19.67;37.62;99058.53;5008115;28;8784;-43
2021/05/19 03:07:38;;;;;;;;;4.00;4.00;;;;;19.56;37.60;99051.94;5008021;28;8797;-43
2021/05/19 03:10:04;;;;;;;;;3.75;3.75;;;;;19.39;37.95;99027.56;5005925;28;8812;-43
2021/05/19 03:12:29;;;;;;;;;4.00;3.40;;;;;19.48;37.88;99039.97;4979849;28;8850;-43
2021/05/19 03:14:55;;;;;;;;;3.00;3.00;;;;;19.44;37.98;99035.53;4994349;28;8914;-42
2021/05/19 03:17:21;;;;;;;;;3.80;3.80;;;;;19.34;38.00;99034.03;5005819;28;8785;-43
2021/05/19 03:19:47;;;;;;;;;4.00;4.00;;;;;19.40;37.96;99048.28;5008847;28;8776;-43
2021/05/19 03:22:13;;;;;;;;;3.00;3.00;;;;;19.38;37.86;99048.63;5002101;28;8913;-43
2021/05/19 03:24:38;;;;;;;;;3.75;3.75;;;;;19.37;37.92;99038.06;4989377;28;9686;-43
2021/05/19 03:27:04;;;;;;;;;3.50;3.50;;;;;19.37;38.11;99035.31;4993575;28;8816;-42
2021/05/19 03:29:29;;;;;;;;;3.75;3.75;;;;;19.35;37.98;99048.50;5006541;28;8835;-43
2021/05/19 03:31:54;;;;;;;;;4.00;4.00;;;;;19.37;38.10;99049.00;5000985;28;8807;-42
2021/05/19 03:34:20;;;;;;;;;3.00;3.00;;;;;19.36;38.32;99047.38;4988460;28;8802;-43
2021/05/19 03:36:45;;;;;;;;;3.00;3.00;;;;;19.53;37.96;99049.09;4987294;28;8844;-43
2021/05/19 03:39:12;;;;;;;;;5.00;4.50;;;;;19.41;38.09;99042.47;4988269;28;8794;-43
2021/05/19 03:41:37;;;;;;;;;4.60;4.00;;;;;19.33;38.01;99057.09;4990211;28;9551;-43
2021/05/19 03:44:05;;;;;;;;;4.00;4.00;;;;;19.20;38.42;99056.25;5006608;28;8776;-43
2021/05/19 03:46:30;;;;;;;;;2.40;2.40;;;;;19.24;38.21;99059.09;5006898;28;8768;-44
2021/05/19 03:48:57;;;;;;;;;3.50;3.50;;;;;19.17;38.47;99056.94;5008411;28;8874;-42
2021/05/19 03:51:23;;;;;;;;;4.60;4.60;;;;;19.19;38.31;99053.84;5006251;28;8844;-43
2021/05/19 03:53:48;;;;;;;;;4.00;4.00;;;;;19.16;38.18;99052.59;4993890;28;9618;-43
2021/05/19 03:56:14;;;;;;;;;3.00;3.00;;;;;19.19;38.26;99049.19;4977522;28;8820;-43
2021/05/19 03:58:42;;;;;;;;;3.25;3.25;;;;;19.20;38.08;99050.78;4980913;28;9577;-43
2021/05/19 04:01:07;;;;;;;;;3.00;3.00;;;;;19.24;38.27;99053.63;4991253;28;10098;-43
2021/05/19 04:03:32;;;;;;;;;4.00;4.00;;;;;19.22;38.29;99055.91;5004157;28;8927;-43
2021/05/19 04:05:58;;;;;;;;;3.00;3.00;;;;;19.22;38.11;99053.19;5005043;28;8787;-43
2021/05/19 04:08:35;;;;;;;;;3.00;3.00;;;;;19.37;38.32;99062.66;5006891;28;8800;-43
2021/05/19 04:11:00;;;;;;;;;3.00;3.00;;;;;19.06;37.83;98992.91;4997590;28;8814;-42
2021/05/19 04:13:26;;;;;;;;;3.25;3.00;;;;;19.36;38.03;99056.38;5004342;28;9404;-43
2021/05/19 04:15:51;;;;;;;;;3.00;3.00;;;;;19.34;37.98;99057.88;5007329;28;8832;-43
2021/05/19 04:18:17;;;;;;;;;3.00;3.00;;;;;19.31;38.20;99059.34;5005337;28;9219;-43
2021/05/19 04:20:42;;;;;;;;;3.50;3.25;;;;;19.30;38.22;99066.75;4991828;28;8796;-43
2021/05/19 04:23:07;;;;;;;;;4.00;4.00;;;;;19.23;38.27;99071.97;4993686;28;8796;-43
2021/05/19 04:25:35;;;;;;;;;3.75;3.75;;;;;19.30;38.04;99074.16;5004081;28;8797;-42
2021/05/19 04:28:01;;;;;;;;;3.00;3.00;;;;;19.29;38.04;99067.91;5005204;28;8800;-43
2021/05/19 04:30:27;;;;;;;;;3.00;3.00;;;;;19.35;37.90;99073.13;5006481;28;9406;-42
2021/05/19 04:32:53;;;;;;;;;3.25;3.25;;;;;19.23;38.20;99071.97;5005292;28;8963;-43
2021/05/19 04:35:18;;;;;;;;;3.00;3.00;;;;;19.19;38.19;99075.72;5006782;28;8899;-42
2021/05/19 04:37:44;;;;;;;;;3.75;3.75;;;;;19.10;38.58;99073.09;5004638;28;8906;-43
2021/05/19 04:40:10;;;;;;;;;3.75;3.75;;;;;19.06;38.79;99072.19;5005032;28;8785;-43
2021/05/19 04:42:36;;;;;;;;;3.80;3.80;;;;;19.38;38.26;99072.44;5003002;28;8828;-43
2021/05/19 04:45:02;;;;;;;;;4.00;4.00;;;;;19.37;37.99;99076.34;5003276;28;8808;-43
2021/05/19 04:47:27;;;;;;;;;3.00;3.00;;;;;19.27;38.31;99078.34;5005784;28;8768;-43
2021/05/19 04:49:53;;;;;;;;;4.00;4.00;;;;;19.16;38.30;99073.69;5005099;28;8775;-42
2021/05/19 04:52:18;;;;;;;;;3.50;3.50;;;;;19.14;38.41;99076.75;5002780;28;9056;-43
2021/05/19 04:54:43;;;;;;;;;3.50;3.50;;;;;19.08;38.59;99070.72;5006720;28;8795;-43
2021/05/19 04:57:09;;;;;;;;;4.00;4.00;;;;;19.14;38.50;99082.22;4995176;28;8825;-43
2021/05/19 04:59:34;;;;;;;;;3.00;3.00;;;;;19.12;38.50;99073.56;5001737;28;8804;-43
2021/05/19 05:01:59;;;;;;;;;4.75;4.75;;;;;19.21;38.10;99076.22;5005457;28;8861;-42
2021/05/19 05:04:25;;;;;;;;;4.00;4.00;;;;;19.20;38.35;99080.84;4996944;28;8821;-43
2021/05/19 05:06:50;;;;;;;;;3.25;3.25;;;;;19.22;38.11;99086.78;4995251;28;8835;-43
2021/05/19 05:09:15;;;;;;;;;3.00;3.00;;;;;19.18;38.07;99087.81;4977696;28;8809;-42
2021/05/19 05:11:41;;;;;;;;;3.50;3.50;;;;;19.32;38.60;99085.56;4988225;28;9742;-41
2021/05/19 05:14:06;;;;;;;;;4.00;4.00;;;;;19.32;38.60;99090.22;4998242;28;8815;-42
2021/05/19 05:16:31;;;;;;;;;3.00;3.00;;;;;19.48;38.29;99088.41;4990720;28;8763;-41
2021/05/19 05:18:56;;;;;;;;;4.00;4.00;;;;;19.35;38.43;99082.16;4995711;28;8865;-41
2021/05/19 05:21:22;;;;;;;;;4.25;3.75;;;;;19.17;38.71;99088.94;4993309;28;9678;-42
2021/05/19 05:23:47;;;;;;;;;5.00;4.00;;;;;19.15;38.62;99086.53;4991594;28;8834;-41
2021/05/19 05:26:14;;;;;;;;;4.50;4.50;;;;;19.10;38.83;99094.94;4995059;28;8811;-41
2021/05/19 05:28:40;;;;;;;;;4.00;4.00;;;;;19.18;38.61;99091.34;4991864;28;9557;-42
2021/05/19 05:31:05;;;;;;;;;4.25;4.25;;;;;19.21;38.44;99095.34;4994761;28;8827;-41
2021/05/19 05:33:30;;;;;;;;;4.00;4.00;;;;;19.23;38.47;99099.31;4995815;28;8831;-41
2021/05/19 05:35:56;;;;;;;;;3.75;3.75;;;;;19.14;38.39;99097.81;4992042;28;8776;-41
2021/05/19 05:38:21;;;;;;;;;5.00;5.00;;;;;19.12;38.50;99103.63;4989766;28;8801;-41
2021/05/19 05:40:47;;;;;;;;;3.00;3.00;;;;;19.13;38.56;99091.56;4991779;28;8767;-42
2021/05/19 05:43:12;;;;;;;;;3.00;3.00;;;;;19.05;38.57;99098.72;4993267;28;8820;-42
2021/05/19 05:45:37;;;;;;;;;3.75;3.75;;;;;19.08;38.48;99091.75;5000054;28;11500;-42
2021/05/19 05:48:03;;;;;;;;;3.50;3.50;;;;;19.24;38.48;99095.47;4993439;28;8808;-41
2021/05/19 05:50:29;;;;;;;;;4.40;4.40;;;;;19.36;38.00;99096.59;4994750;28;8795;-42
2021/05/19 05:52:54;;;;;;;;;4.00;4.00;;;;;19.19;38.36;99098.41;4995081;28;8814;-41
2021/05/19 05:55:22;;;;;;;;;4.00;4.00;;;;;19.17;38.48;99095.22;4990807;28;8838;-42
2021/05/19 05:57:49;;;;;;;;;4.00;4.00;;;;;19.25;38.31;99099.78;4970450;28;8814;-42
2021/05/19 06:00:15;;;;;;;;;4.60;4.00;;;;;19.69;37.68;99093.78;4993261;28;8783;-41
2021/05/19 06:02:40;;;;;;;;;4.00;4.00;;;;;20.22;36.68;99099.34;4994370;28;8818;-41
2021/05/19 06:05:06;;;;;;;;;3.00;3.00;;;;;20.23;36.60;99095.47;4993187;28;8794;-42
2021/05/19 06:07:31;;;;;;;;;3.40;3.40;;;;;20.02;36.57;99104.63;4994966;28;8857;-42
2021/05/19 06:09:57;;;;;;;;;3.50;3.50;;;;;19.69;37.40;99104.72;4997678;28;8816;-41
2021/05/19 06:12:22;;;;;;;;;3.75;3.75;;;;;19.62;37.44;99107.22;4990997;28;8822;-41
2021/05/19 06:14:48;;;;;;;;;4.00;4.00;;;;;19.85;37.09;99105.66;4995913;28;8796;-41
2021/05/19 06:17:14;;;;;;;;;3.00;3.00;;;;;20.01;37.03;99097.53;4992156;28;8784;-41
2021/05/19 06:19:41;;;;;;;;;3.20;3.00;;;;;19.87;37.40;99099.84;4997556;28;8776;-41
2021/05/19 06:22:06;;;;;;;;;3.60;3.60;;;;;19.94;37.32;99099.25;4997835;28;8793;-41
2021/05/19 06:24:32;;;;;;;;;3.20;3.20;;;;;19.73;37.34;99104.84;4993814;28;8897;-41
2021/05/19 06:26:57;;;;;;;;;3.75;3.75;;;;;19.62;37.53;99105.28;4992425;28;8839;-41
2021/05/19 06:29:22;;;;;;;;;3.50;3.50;;;;;19.49;37.90;99107.22;4992514;28;8820;-41
2021/05/19 06:31:48;;;;;;;;;3.00;3.00;;;;;19.41;37.70;99088.19;4993401;28;8912;-41
2021/05/19 06:34:13;;;;;;;;;5.50;5.00;;;;;19.65;37.52;99109.28;4992640;28;12658;-41
2021/05/19 06:36:42;;;;;;;;;3.00;3.00;;;;;19.53;37.67;99107.34;4993606;28;8820;-41
2021/05/19 06:39:07;;;;;;;;;3.40;3.40;;;;;19.48;37.74;99111.09;4994063;28;8802;-42
2021/05/19 06:41:33;;;;;;;;;4.50;4.50;;;;;19.45;37.76;99117.25;4993181;28;8819;-41
2021/05/19 06:43:58;;;;;;;;;4.50;4.50;;;;;19.42;37.77;99117.94;4985596;28;8793;-41
2021/05/19 06:46:25;;;;;;;;;5.00;4.50;;;;;19.42;37.96;99120.66;4976386;28;8763;-41
2021/05/19 06:48:51;;;;;;;;;3.00;3.00;;;;;19.42;37.85;99120.66;4993845;28;8798;-41
2021/05/19 06:51:16;;;;;;;;;4.00;4.00;;;;;19.42;37.89;99112.47;4990809;28;8906;-41
2021/05/19 06:53:41;;;;;;;;;4.00;4.00;;;;;19.53;37.94;99109.28;4996748;28;8787;-41
2021/05/19 06:56:08;;;;;;;;;3.25;3.25;;;;;19.53;37.95;99112.81;4993457;28;8783;-41
2021/05/19 06:58:33;;;;;;;;;3.00;3.00;;;;;19.43;37.83;99114.03;4989110;28;8782;-41
2021/05/19 07:00:58;;;;;;;;;3.50;3.50;;;;;19.51;37.80;99119.75;4992602;28;8810;-42
2021/05/19 07:03:24;;;;;;;;;3.75;3.75;;;;;19.49;37.82;99120.09;4991481;28;8812;-41
2021/05/19 07:05:49;;;;;;;;;4.75;4.75;;;;;19.46;37.83;99118.03;4989670;28;8799;-41
2021/05/19 07:08:15;;;;;;;;;4.00;4.00;;;;;19.45;38.05;99127.38;4994921;28;8812;-41
2021/05/19 07:10:40;;;;;;;;;4.00;4.00;;;;;19.45;37.92;99124.63;4989638;28;8986;-41
2021/05/19 07:13:05;;;;;;;;;4.00;4.00;;;;;19.36;38.05;99122.00;4993681;28;8937;-41
2021/05/19 07:15:37;;;;;;;;;2.25;2.25;;;;;19.40;38.00;99124.84;4997700;28;8796;-41
2021/05/19 07:18:11;;;;;;;;;3.00;3.00;;;;;19.39;38.09;99124.06;4990288;28;8930;-41
2021/05/19 07:20:37;;;;;;;;;3.00;3.00;;;;;19.48;38.07;99123.97;4991377;28;9561;-41
2021/05/19 07:23:02;;;;;;;;;5.00;5.00;;;;;19.19;38.12;99090.22;4991825;28;8776;-41
2021/05/19 07:25:27;;;;;;;;;3.00;3.00;;;;;19.52;38.21;99121.34;4993592;28;8835;-41
2021/05/19 07:27:53;;;;;;;;;3.75;3.75;;;;;19.70;37.90;99121.94;4993530;28;8819;-41
2021/05/19 07:30:19;;;;;;;;;4.00;4.00;;;;;19.57;37.83;99113.72;4989315;28;8785;-42
2021/05/19 07:32:44;;;;;;;;;3.40;3.40;;;;;19.45;38.19;99127.38;4989500;28;8854;-41
2021/05/19 07:35:10;;;;;;;;;4.75;4.75;;;;;19.56;37.70;99114.88;4994464;28;8791;-42
2021/05/19 07:37:35;;;;;;;;;3.60;3.60;;;;;19.53;37.94;99118.28;4994450;28;9383;-41
2021/05/19 07:40:02;;;;;;;;;3.25;3.25;;;;;19.65;37.68;99126.50;4991268;28;10110;-38
2021/05/19 07:42:27;;;;;;;;;5.00;4.00;;;;;19.55;37.71;99126.94;4991065;28;8799;-41
2021/05/19 07:44:53;;;;;;;;;3.75;3.75;;;;;19.41;38.06;99126.47;4993831;28;9846;-41
2021/05/19 07:47:18;;;;;;;;;3.75;3.75;;;;;19.36;38.26;99126.69;4986450;28;8805;-41
2021/05/19 07:49:44;;;;;;;;;3.50;3.25;;;;;19.39;38.21;99134.22;4982102;28;8828;-41
2021/05/19 07:52:09;;;;;;;;;4.00;4.00;;;;;19.38;38.17;99133.41;4995193;28;8867;-41
2021/05/19 07:54:36;;;;;;;;;3.00;3.00;;;;;19.34;38.30;99131.69;4998092;28;8813;-41
2021/05/19 07:57:09;;;;;;;;;3.00;3.00;;;;;19.32;38.23;99128.50;4996876;28;9531;-41
2021/05/19 07:59:35;;;;;;;;;4.00;4.00;;;;;19.46;38.27;99131.72;4993655;28;9513;-41
2021/05/19 08:02:08;;;;;;;;;3.00;3.00;;;;;19.55;38.10;99128.88;4996264;28;8792;-41
2021/05/19 08:04:35;;;;;;;;;3.00;3.00;;;;;19.42;37.93;99131.59;4996659;28;11265;-41
2021/05/19 08:07:01;;;;;;;;;3.00;3.00;;;;;19.55;38.13;99129.66;4995322;28;8796;-41
2021/05/19 08:09:27;;;;;;;;;4.00;4.00;;;;;19.58;37.72;99120.78;4998587;28;8914;-41
2021/05/19 08:11:53;;;;;;;;;4.00;4.00;;;;;19.60;37.93;99129.44;4994455;28;8824;-41
2021/05/19 08:14:18;;;;;;;;;3.00;3.00;;;;;19.10;37.74;99060.25;4993255;28;8933;-41
2021/05/19 08:16:44;;;;;;;;;3.00;3.00;;;;;19.35;38.17;99131.38;4995252;28;8783;-41
2021/05/19 08:19:10;;;;;;;;;4.25;4.25;;;;;19.35;38.13;99133.28;4996941;28;11083;-41
2021/05/19 08:21:35;;;;;;;;;4.00;4.00;;;;;19.36;38.09;99130.22;4997118;28;9633;-41
2021/05/19 08:24:00;;;;;;;;;3.00;3.00;;;;;19.34;38.31;99128.97;4998922;28;11505;-41
2021/05/19 08:26:26;;;;;;;;;3.25;3.25;;;;;19.34;38.26;99127.03;4983344;28;8807;-41
2021/05/19 08:28:51;;;;;;;;;3.00;3.00;;;;;19.46;37.98;99118.03;4980220;28;8776;-41
2021/05/19 08:31:18;;;;;;;;;3.25;3.25;;;;;19.42;38.31;99122.59;4997730;28;8907;-41
2021/05/19 08:33:45;;;;;;;;;3.00;3.00;;;;;19.63;38.05;99123.31;4995800;28;8820;-41
2021/05/19 08:36:11;;;;;;;;;4.40;4.00;;;;;19.37;38.03;99109.16;4976526;28;8931;-41
2021/05/19 08:38:38;;;;;;;;;3.00;3.00;;;;;19.58;37.78;99130.94;4977876;28;9003;-41
2021/05/19 08:41:07;;;;;;;;;4.00;4.00;;;;;19.39;37.75;99094.00;4971842;28;10394;-41
2021/05/19 08:43:34;;;;;;;;;3.40;3.40;;;;;19.58;37.91;99123.53;4976158;28;8773;-41
2021/05/19 08:46:03;;;;;;;;;3.80;3.80;;;;;19.47;37.82;99119.63;4980900;28;8806;-41
2021/05/19 08:48:30;;;;;;;;;4.00;3.60;;;;;19.61;37.89;99131.06;4973419;28;8818;-41
2021/05/19 08:50:56;;;;;;;;;4.00;4.00;;;;;19.38;37.89;99089.66;4993019;28;8825;-41
2021/05/19 08:53:25;;;;;;;;;3.00;3.00;;;;;19.54;37.79;99130.00;4997187;28;8859;-41
2021/05/19 08:55:50;;;;;;;;;3.00;3.00;;;;;19.46;37.82;99118.84;4997670;28;9048;-42
2021/05/19 08:58:15;;;;;;;;;4.00;4.00;;;;;19.47;38.07;99131.38;4992690;28;8957;-40
2021/05/19 09:00:40;;;;;;;;;3.00;3.00;;;;;19.53;38.00;99131.16;4983347;28;8932;-41
2021/05/19 09:03:07;;;;;;;;;3.00;3.00;;;;;19.51;37.89;99126.03;4993132;28;8800;-41
2021/05/19 09:05:34;;;;;;;;;3.40;3.00;;;;;19.52;38.15;99129.56;4999014;28;8819;-41
2021/05/19 09:08:19;;;;;;;;;3.00;3.00;;;;;19.51;38.21;99127.94;4997217;28;8826;-42
2021/05/19 09:11:00;;;;;;;;;3.00;3.00;;;;;19.41;38.12;99130.00;4993060;28;9571;-41
2021/05/19 09:13:41;;;;;;;;;3.20;3.00;;;;;19.40;38.23;99133.06;4992502;28;9647;-40
2021/05/19 09:16:09;;;;;;;;;3.80;3.80;;;;;19.43;38.18;99126.91;4996955;28;8768;-42
2021/05/19 09:18:58;;;;;;;;;3.60;3.60;;;;;19.43;38.08;99129.66;4992418;28;9919;-41
2021/05/19 09:21:34;;;;;;;;;4.00;4.00;;;;;19.54;37.85;99135.47;4992479;28;8780;-41
2021/05/19 09:24:01;;;;;;;;;4.60;4.00;;;;;19.53;37.82;99131.16;4997442;28;8779;-41
2021/05/19 09:26:27;;;;;;;;;3.60;3.60;;;;;19.49;38.00;99131.06;4997508;28;8794;-41
2021/05/19 09:28:52;;;;;;;;;3.00;3.00;;;;;19.52;37.94;99138.56;4993305;28;8778;-41
2021/05/19 09:31:22;;;;;;;;;4.00;4.00;;;;;19.45;37.97;99127.38;4994555;28;8840;-41
2021/05/19 09:33:50;;;;;;;;;3.60;3.60;;;;;19.42;38.00;99133.53;4996984;28;8832;-41
2021/05/19 09:36:21;;;;;;;;;4.00;4.00;;;;;19.43;37.99;99140.59;4992925;28;8807;-41
2021/05/19 09:38:52;;;;;;;;;3.00;3.00;;;;;19.56;38.09;99138.66;4997982;28;8894;-41
2021/05/19 09:41:28;;;;;;;;;4.00;4.00;;;;;19.54;37.96;99130.81;4992532;28;8931;-41
2021/05/19 09:43:56;;;;;;;;;4.00;3.60;;;;;19.41;38.02;99138.19;4996226;28;8782;-41
2021/05/19 09:46:35;;;;;;;;;2.80;2.80;;;;;19.41;38.00;99127.25;4994055;28;8823;-41
2021/05/19 09:49:20;;;;;;;;;3.40;3.40;;;;;19.42;37.96;99130.81;4976593;28;8818;-41
2021/05/19 09:51:49;;;;;;;;;3.00;3.00;;;;;19.49;37.95;99133.78;4971315;28;8861;-41
2021/05/19 09:54:36;;;;;;;;;3.60;3.60;;;;;19.48;37.84;99132.19;4990752;28;8798;-41
2021/05/19 09:57:04;;;;;;;;;3.00;3.00;;;;;19.47;38.04;99130.56;4978966;28;8807;-41
2021/05/19 09:59:31;;;;;;;;;2.60;2.60;;;;;19.45;38.05;99127.38;4982027;28;8798;-41
2021/05/19 10:01:57;;;;;;;;;3.00;3.00;;;;;19.45;38.02;99138.31;4997248;28;8816;-41
2021/05/19 10:04:30;;;;;;;;;4.00;4.00;;;;;19.40;37.96;99133.06;4991631;28;8861;-41
2021/05/19 10:06:56;;;;;;;;;3.60;3.60;;;;;19.41;38.02;99126.47;4974139;28;8813;-41
2021/05/19 10:09:21;;;;;;;;;3.60;3.60;;;;;19.32;38.17;99128.50;4975225;28;8843;-41
2021/05/19 10:11:47;;;;;;;;;4.00;3.75;;;;;19.49;38.13;99129.09;4985251;28;8836;-41
2021/05/19 10:14:14;;;;;;;;;3.00;3.00;;;;;19.52;38.03;99127.63;4993716;28;8906;-41
2021/05/19 10:16:45;;;;;;;;;3.00;3.00;;;;;19.40;37.81;99124.84;4995455;28;8933;-41
2021/05/19 10:19:22;;;;;;;;;3.00;3.00;;;;;19.38;38.09;99127.94;4993782;28;8812;-42
2021/05/19 10:21:47;;;;;;;;;3.00;3.00;;;;;19.37;37.90;99125.56;4994038;28;8817;-41
2021/05/19 10:24:14;;;;;;;;;3.00;3.00;;;;;19.36;38.11;99129.41;4998156;28;8836;-41
2021/05/19 10:26:59;;;;;;;;;4.00;3.80;;;;;19.37;38.12;99125.56;4980101;28;8806;-40
2021/05/19 10:29:49;;;;;;;;;3.80;3.80;;;;;19.35;38.06;99122.34;4971131;28;9700;-41
2021/05/19 10:32:21;;;;;;;;;3.00;3.00;;;;;19.35;38.02;99125.06;4982200;28;9001;-41
2021/05/19 10:34:51;;;;;;;;;3.20;3.20;;;;;19.30;38.03;99126.91;4991867;28;8808;-41
2021/05/19 10:37:26;;;;;;;;;3.40;3.40;;;;;19.28;38.10;99126.44;4992572;28;9405;-41
2021/05/19 10:40:14;;;;;;;;;3.00;3.00;;;;;19.20;38.06;99115.59;4993386;28;8790;-41
2021/05/19 10:42:51;;;;;;;;;3.00;3.00;;;;;19.27;38.02;99122.09;4994694;28;8923;-42
2021/05/19 10:45:16;;;;;;;;;3.80;3.80;;;;;19.41;38.11;99130.00;4994318;28;8818;-41
2021/05/19 10:47:44;;;;;;;;;4.00;4.00;;;;;19.39;38.02;99132.28;4993825;28;8802;-41
2021/05/19 11:01:05;;;;;;;;;3.00;3.00;;;;;19.21;38.34;99128.94;4993409;28;8804;-41
2021/05/19 11:03:31;;;;;;;;;3.00;3.00;;;;;19.19;38.15;99127.66;4991435;28;8797;-41
2021/05/19 11:05:56;;;;;;;;;3.00;3.00;;;;;19.20;38.23;99124.59;4993920;28;8815;-41
2021/05/19 11:08:23;;;;;;;;;3.00;3.00;;;;;19.33;38.20;99127.34;4994061;28;8820;-41
2021/05/19 11:10:52;;;;;;;;;3.20;3.00;;;;;19.25;38.15;99121.66;4994222;28;8790;-41
2021/05/19 11:13:19;;;;;;;;;3.00;3.00;;;;;18.75;38.15;99051.59;4995096;28;9571;-41
2021/05/19 11:16:13;;;;;;;;;3.20;3.20;;;;;19.19;38.24;99120.28;4997807;28;8875;-41
2021/05/19 11:21:34;;;;;;;;;3.00;3.00;;;;;19.33;38.00;99124.63;4996068;28;8813;-36
2021/05/19 11:24:11;;;;;;;;;3.00;3.00;;;;;19.29;38.04;99124.50;4998165;28;8785;-36
2021/05/19 11:26:41;;;;;;;;;3.40;3.40;;;;;19.24;38.18;99127.44;4993703;28;8819;-36
2021/05/19 11:29:10;;;;;;;;;2.80;2.80;;;;;19.18;38.15;99124.13;4994776;28;8785;-36
2021/05/19 11:31:45;;;;;;;;;3.60;3.60;;;;;19.14;38.38;99120.50;4995140;28;9238;-36
2021/05/19 11:34:12;;;;;;;;;3.40;3.00;;;;;19.14;38.18;99120.50;4977197;28;8799;-36
2021/05/19 11:36:42;;;;;;;;;3.60;3.60;;;;;19.16;38.23;99125.63;4979021;28;8840;-36
2021/05/19 11:39:33;;;;;;;;;3.00;3.00;;;;;19.18;38.17;99121.41;4981703;28;8786;-36
2021/05/19 11:42:28;;;;;;;;;2.80;2.80;;;;;18.77;38.13;99052.03;4989382;28;8783;-36
2021/05/19 11:45:01;;;;;;;;;3.00;3.00;;;;;19.03;38.13;99079.13;4993450;28;8794;-36
2021/05/19 11:47:32;;;;;;;;;3.60;3.60;;;;;19.24;38.12;99111.88;4993850;28;8828;-36
2021/05/19 11:50:07;;;;;;;;;3.00;3.00;;;;;19.28;38.46;99112.00;4994427;28;8896;-36
2021/05/19 11:52:41;;;;;;;;;4.00;4.00;;;;;19.39;38.11;99109.59;4994909;28;8894;-36
2021/05/19 11:55:21;;;;;;;;;3.00;3.00;;;;;19.42;37.98;99111.66;4994498;28;8803;-36
2021/05/19 11:57:47;;;;;;;;;3.00;3.00;;;;;19.22;38.04;99089.50;4994243;28;9008;-36
2021/05/19 12:00:13;;;;;;;;;3.00;3.00;;;;;19.19;38.12;99103.88;4997404;28;8927;-35